SRR355 BIKF-EGCC
Flight info
| Callsign | SRR355 |
|---|---|
| Flight time | N/A |
| Altitude | 37000 |
| Route | RIMUM1A RIMUM DCT RUMUX DCT RAPAX DCT ERAKA/N0477F370 DCT ETSOM DCT TLA DCT DCS DCT ASCOM L612 LAKEY |
| Aircraft | B77L/H-SDE1E2E3FGHIJ2J3J4J5M1RWXY/LB1D1 |
Departure
| Time | 2026-05-05 10:05 |
|---|---|
| Airport | Keflavik International Airport (BIKF) |
Arrival
| Time | N/A |
|---|---|
| Airport | Manchester Airport (EGCC) |
| Time | Latitude | Longitude | Altitude | Speed | Heading |
|---|---|---|---|---|---|
| 2026-05-05 09:53 | 63.99284 | -22.62914 | 162 ft | 0 kts | 269° |
| 2026-05-05 09:54 | 63.99284 | -22.62911 | 167 ft | 2 kts | 269° |
| 2026-05-05 09:54 | 63.99284 | -22.62873 | 170 ft | 2 kts | 269° |
| 2026-05-05 09:54 | 63.99285 | -22.62834 | 170 ft | 2 kts | 269° |
| 2026-05-05 09:54 | 63.99285 | -22.62795 | 170 ft | 3 kts | 248° |
| 2026-05-05 09:55 | 63.99295 | -22.62761 | 170 ft | 3 kts | 208° |
| 2026-05-05 09:55 | 63.99309 | -22.62750 | 170 ft | 0 kts | 178° |
| 2026-05-05 09:55 | 63.99308 | -22.62750 | 170 ft | 0 kts | 178° |
| 2026-05-05 09:56 | 63.99305 | -22.62749 | 170 ft | 2 kts | 178° |
| 2026-05-05 09:56 | 63.99282 | -22.62737 | 170 ft | 4 kts | 158° |
| 2026-05-05 09:57 | 63.99246 | -22.62701 | 169 ft | 10 kts | 156° |
| 2026-05-05 09:57 | 63.99176 | -22.62561 | 169 ft | 17 kts | 109° |
| 2026-05-05 09:57 | 63.99176 | -22.62317 | 169 ft | 15 kts | 86° |
| 2026-05-05 09:57 | 63.99178 | -22.62086 | 170 ft | 15 kts | 90° |
| 2026-05-05 09:58 | 63.99178 | -22.61854 | 170 ft | 15 kts | 90° |
| 2026-05-05 09:58 | 63.99177 | -22.61622 | 171 ft | 15 kts | 90° |
| 2026-05-05 09:58 | 63.99177 | -22.61390 | 172 ft | 15 kts | 90° |
| 2026-05-05 09:58 | 63.99177 | -22.61158 | 173 ft | 15 kts | 90° |
| 2026-05-05 09:59 | 63.99135 | -22.60966 | 173 ft | 15 kts | 155° |
| 2026-05-05 09:59 | 63.99028 | -22.60942 | 171 ft | 16 kts | 180° |
| 2026-05-05 09:59 | 63.98909 | -22.60947 | 168 ft | 18 kts | 181° |
| 2026-05-05 09:59 | 63.98781 | -22.60953 | 165 ft | 19 kts | 181° |
| 2026-05-05 10:00 | 63.98642 | -22.60956 | 162 ft | 21 kts | 180° |
| 2026-05-05 10:00 | 63.98516 | -22.60934 | 159 ft | 18 kts | 174° |
| 2026-05-05 10:00 | 63.98388 | -22.60935 | 156 ft | 18 kts | 180° |
| 2026-05-05 10:00 | 63.98260 | -22.60936 | 155 ft | 18 kts | 180° |
| 2026-05-05 10:01 | 63.98132 | -22.60938 | 154 ft | 18 kts | 180° |
| 2026-05-05 10:01 | 63.98004 | -22.60939 | 154 ft | 18 kts | 180° |
| 2026-05-05 10:01 | 63.97875 | -22.60940 | 153 ft | 18 kts | 180° |
| 2026-05-05 10:01 | 63.97747 | -22.60942 | 152 ft | 18 kts | 180° |
| 2026-05-05 10:02 | 63.97619 | -22.60943 | 151 ft | 18 kts | 180° |
| 2026-05-05 10:02 | 63.97490 | -22.60944 | 150 ft | 18 kts | 180° |
| 2026-05-05 10:02 | 63.97361 | -22.60945 | 150 ft | 18 kts | 180° |
| 2026-05-05 10:02 | 63.97232 | -22.60947 | 149 ft | 18 kts | 180° |
| 2026-05-05 10:03 | 63.97104 | -22.60948 | 148 ft | 18 kts | 180° |
| 2026-05-05 10:03 | 63.96977 | -22.60949 | 147 ft | 18 kts | 180° |
| 2026-05-05 10:03 | 63.96848 | -22.60950 | 146 ft | 18 kts | 180° |
| 2026-05-05 10:03 | 63.96720 | -22.60948 | 146 ft | 18 kts | 179° |
| 2026-05-05 10:04 | 63.96598 | -22.60944 | 145 ft | 16 kts | 178° |
| 2026-05-05 10:04 | 63.96548 | -22.60759 | 145 ft | 15 kts | 92° |
| 2026-05-05 10:04 | 63.96586 | -22.60557 | 145 ft | 15 kts | 21° |
| 2026-05-05 10:04 | 63.96743 | -22.60548 | 147 ft | 51 kts | 0° |
| 2026-05-05 10:05 | 63.97490 | -22.60548 | 158 ft | 161 kts | 360° |
| 2026-05-05 10:05 | 63.98786 | -22.60557 | 792 ft | 198 kts | 2° |
| 2026-05-05 10:05 | 64.00205 | -22.60570 | 2029 ft | 209 kts | 3° |
| 2026-05-05 10:05 | 64.01700 | -22.60601 | 3009 ft | 225 kts | 2° |
| 2026-05-05 10:06 | 64.03276 | -22.60013 | 3665 ft | 239 kts | 26° |
| 2026-05-05 10:06 | 64.04578 | -22.57732 | 4746 ft | 239 kts | 45° |
| 2026-05-05 10:06 | 64.05672 | -22.54883 | 5688 ft | 242 kts | 39° |
| 2026-05-05 10:06 | 64.06985 | -22.52482 | 6441 ft | 250 kts | 38° |
| 2026-05-05 10:07 | 64.08035 | -22.49260 | 7201 ft | 266 kts | 68° |
| 2026-05-05 10:07 | 64.08104 | -22.44951 | 8076 ft | 283 kts | 104° |
| 2026-05-05 10:07 | 64.07076 | -22.41092 | 9033 ft | 290 kts | 141° |
| 2026-05-05 10:07 | 64.05289 | -22.39098 | 10041 ft | 288 kts | 176° |
| 2026-05-05 10:08 | 64.03334 | -22.39478 | 10843 ft | 282 kts | 201° |
| 2026-05-05 10:08 | 64.01357 | -22.40480 | 11106 ft | 309 kts | 185° |
| 2026-05-05 10:08 | 63.99134 | -22.39370 | 11319 ft | 344 kts | 160° |
| 2026-05-05 10:08 | 63.96869 | -22.37079 | 11502 ft | 366 kts | 163° |
| 2026-05-05 10:09 | 63.94366 | -22.35409 | 12050 ft | 381 kts | 171° |
| 2026-05-05 10:09 | 63.91772 | -22.34162 | 12861 ft | 391 kts | 174° |
| 2026-05-05 10:09 | 63.89042 | -22.32939 | 13774 ft | 399 kts | 174° |
| 2026-05-05 10:09 | 63.86324 | -22.31680 | 14630 ft | 407 kts | 175° |
| 2026-05-05 10:10 | 63.83526 | -22.30331 | 15494 ft | 413 kts | 175° |
| 2026-05-05 10:10 | 63.80698 | -22.28944 | 16397 ft | 419 kts | 175° |
| 2026-05-05 10:10 | 63.77834 | -22.27538 | 17202 ft | 425 kts | 175° |
| 2026-05-05 10:10 | 63.74918 | -22.26113 | 18006 ft | 432 kts | 175° |
| 2026-05-05 10:11 | 63.71952 | -22.24671 | 18755 ft | 440 kts | 175° |
| 2026-05-05 10:11 | 63.68940 | -22.23208 | 19433 ft | 446 kts | 175° |
| 2026-05-05 10:11 | 63.65888 | -22.21731 | 20156 ft | 451 kts | 175° |
| 2026-05-05 10:11 | 63.62789 | -22.20232 | 20842 ft | 457 kts | 175° |
| 2026-05-05 10:12 | 63.59660 | -22.18718 | 21524 ft | 463 kts | 176° |
| 2026-05-05 10:12 | 63.56492 | -22.17191 | 22166 ft | 469 kts | 175° |
| 2026-05-05 10:12 | 63.53286 | -22.15646 | 22909 ft | 473 kts | 175° |
| 2026-05-05 10:12 | 63.50103 | -22.13608 | 23363 ft | 486 kts | 166° |
| 2026-05-05 10:13 | 63.46947 | -22.10539 | 23910 ft | 499 kts | 160° |
| 2026-05-05 10:13 | 63.43867 | -22.07051 | 24467 ft | 505 kts | 159° |
| 2026-05-05 10:13 | 63.40738 | -22.03421 | 25072 ft | 509 kts | 159° |
| 2026-05-05 10:13 | 63.37569 | -21.99849 | 25613 ft | 512 kts | 160° |
| 2026-05-05 10:14 | 63.34343 | -21.96357 | 26143 ft | 517 kts | 160° |
| 2026-05-05 10:14 | 63.31075 | -21.92931 | 26647 ft | 522 kts | 161° |
| 2026-05-05 10:14 | 63.27767 | -21.89525 | 27114 ft | 526 kts | 161° |
| 2026-05-05 10:14 | 63.24430 | -21.86108 | 27708 ft | 529 kts | 160° |
| 2026-05-05 10:15 | 63.21071 | -21.82671 | 28215 ft | 534 kts | 160° |
| 2026-05-05 10:15 | 63.17684 | -21.79202 | 28677 ft | 539 kts | 160° |
| 2026-05-05 10:15 | 63.14261 | -21.75697 | 29098 ft | 544 kts | 160° |
| 2026-05-05 10:15 | 63.10809 | -21.72171 | 29534 ft | 549 kts | 160° |
| 2026-05-05 10:16 | 63.07416 | -21.68261 | 29799 ft | 557 kts | 150° |
| 2026-05-05 10:16 | 63.04471 | -21.62629 | 30166 ft | 562 kts | 132° |
| 2026-05-05 10:16 | 63.02002 | -21.55951 | 30592 ft | 563 kts | 129° |
| 2026-05-05 10:16 | 62.99575 | -21.49307 | 31149 ft | 561 kts | 130° |
| 2026-05-05 10:17 | 62.97080 | -21.42769 | 31933 ft | 555 kts | 132° |
| 2026-05-05 10:17 | 62.95757 | -21.39404 | 32326 ft | 552 kts | 133° |
| 2026-05-05 10:17 | 62.94093 | -21.35245 | 32827 ft | 548 kts | 133° |
| 2026-05-05 10:17 | 62.91554 | -21.29003 | 33432 ft | 545 kts | 133° |
| 2026-05-05 10:18 | 62.88747 | -21.22179 | 34026 ft | 544 kts | 134° |
| 2026-05-05 10:18 | 62.79129 | -20.98876 | 35630 ft | 539 kts | 133° |
| 2026-05-05 10:18 | 62.75779 | -20.90769 | 36228 ft | 536 kts | 133° |
| 2026-05-05 10:18 | 62.73247 | -20.84663 | 36653 ft | 535 kts | 133° |
| 2026-05-05 10:19 | 62.70783 | -20.78737 | 36995 ft | 535 kts | 133° |
| 2026-05-05 10:19 | 62.68275 | -20.72723 | 37245 ft | 537 kts | 133° |
| 2026-05-05 10:19 | 62.61584 | -20.56764 | 37304 ft | 548 kts | 133° |
| 2026-05-05 10:19 | 62.54818 | -20.40739 | 37302 ft | 548 kts | 133° |
| 2026-05-05 10:20 | 62.44758 | -20.17120 | 37243 ft | 533 kts | 134° |
| 2026-05-05 10:20 | 62.34568 | -19.94327 | 37188 ft | 524 kts | 141° |
| 2026-05-05 10:20 | 62.23618 | -19.73692 | 37315 ft | 525 kts | 140° |
| 2026-05-05 10:20 | 62.12562 | -19.52767 | 37333 ft | 533 kts | 140° |
| 2026-05-05 10:21 | 61.90204 | -19.11122 | 37288 ft | 534 kts | 141° |
| 2026-05-05 10:21 | 61.79072 | -18.90698 | 37218 ft | 523 kts | 141° |
| 2026-05-05 10:21 | 61.68145 | -18.70850 | 37261 ft | 515 kts | 141° |
| 2026-05-05 10:22 | 61.46904 | -18.29892 | 37272 ft | 528 kts | 126° |
| 2026-05-05 10:22 | 61.29499 | -17.79894 | 37282 ft | 531 kts | 127° |
| 2026-05-05 10:23 | 61.15043 | -17.39558 | 37252 ft | 518 kts | 127° |
| 2026-05-05 10:23 | 61.10730 | -17.27657 | 37248 ft | 515 kts | 128° |
| 2026-05-05 10:24 | 61.06451 | -17.15909 | 37276 ft | 515 kts | 128° |
| 2026-05-05 10:24 | 61.02128 | -17.04103 | 37285 ft | 517 kts | 128° |
| 2026-05-05 10:25 | 60.97775 | -16.92276 | 37285 ft | 519 kts | 128° |
| 2026-05-05 10:25 | 60.93397 | -16.80438 | 37284 ft | 521 kts | 128° |
| 2026-05-05 10:26 | 60.88987 | -16.68576 | 37318 ft | 522 kts | 128° |
| 2026-05-05 10:26 | 60.84560 | -16.56732 | 37287 ft | 524 kts | 128° |
| 2026-05-05 10:27 | 60.80856 | -16.46865 | 37284 ft | 524 kts | 128° |
| 2026-05-05 10:27 | 60.76890 | -16.36348 | 37280 ft | 525 kts | 128° |
| 2026-05-05 10:28 | 60.74070 | -16.28895 | 37273 ft | 524 kts | 128° |
| 2026-05-05 10:28 | 60.69627 | -16.17210 | 37278 ft | 524 kts | 128° |
| 2026-05-05 10:29 | 60.65140 | -16.05471 | 37275 ft | 523 kts | 129° |
| 2026-05-05 10:29 | 60.60656 | -15.93792 | 37279 ft | 522 kts | 129° |
| 2026-05-05 10:30 | 60.56207 | -15.82265 | 37274 ft | 522 kts | 129° |
| 2026-05-05 10:30 | 60.51743 | -15.70755 | 37294 ft | 521 kts | 129° |
| 2026-05-05 10:31 | 60.47241 | -15.59206 | 37281 ft | 521 kts | 129° |
| 2026-05-05 10:31 | 60.42729 | -15.47688 | 37259 ft | 521 kts | 129° |
| 2026-05-05 10:32 | 60.38215 | -15.36224 | 37272 ft | 520 kts | 129° |
| 2026-05-05 10:32 | 60.33705 | -15.24825 | 37274 ft | 519 kts | 129° |
| 2026-05-05 10:33 | 60.29185 | -15.13458 | 37273 ft | 519 kts | 130° |
| 2026-05-05 10:33 | 60.24659 | -15.02132 | 37278 ft | 519 kts | 130° |
| 2026-05-05 10:34 | 60.21336 | -14.93849 | 37271 ft | 519 kts | 130° |
| 2026-05-05 10:34 | 60.19598 | -14.89528 | 37246 ft | 519 kts | 130° |
| 2026-05-05 10:35 | 60.16193 | -14.81093 | 37291 ft | 518 kts | 130° |